createdAt,value
2022-11-21T00:00:48.560Z,663.7
2022-11-21T00:01:51.003Z,664.3
2022-11-21T00:02:53.226Z,664.4
2022-11-21T00:03:55.159Z,664.3
2022-11-21T00:04:57.635Z,664.5
2022-11-21T00:06:00.124Z,663.7
2022-11-21T00:07:01.855Z,663.3
2022-11-21T00:08:03.238Z,663.6
2022-11-21T00:09:05.715Z,663.4
2022-11-21T00:10:08.198Z,663.5
2022-11-21T00:11:10.673Z,662.9
2022-11-21T00:12:13.155Z,663.9
2022-11-21T00:13:15.349Z,663
2022-11-21T00:14:17.556Z,663.2
2022-11-21T00:15:19.797Z,663.3
2022-11-21T00:16:22.274Z,662.8
2022-11-21T00:17:24.764Z,663.2
2022-11-21T00:18:26.411Z,663.1
2022-11-21T00:19:28.919Z,662.6
2022-11-21T00:20:30.574Z,662.8
2022-11-21T00:21:32.497Z,663
2022-11-21T00:22:34.695Z,662.9
2022-11-21T00:23:36.626Z,663
2022-11-21T00:24:39.120Z,663
2022-11-21T00:25:41.325Z,662.7
2022-11-21T00:26:43.806Z,663
2022-11-21T00:27:46.289Z,663.1
2022-11-21T00:28:48.774Z,663.5
2022-11-21T00:29:51.243Z,663.5
2022-11-21T00:30:53.724Z,663.2
2022-11-21T00:31:56.211Z,663.4
2022-11-21T00:32:58.414Z,663.3
2022-11-21T00:34:00.620Z,663.4
2022-11-21T00:35:03.101Z,663.4
2022-11-21T00:36:05.574Z,663.1
2022-11-21T00:37:07.810Z,663.2
2022-11-21T00:38:10.288Z,663.3
2022-11-21T00:39:12.522Z,662.9
2022-11-21T00:40:15.007Z,663.4
2022-11-21T00:41:17.487Z,663.1
2022-11-21T00:42:19.696Z,663.1
2022-11-21T00:43:22.234Z,663.7
2022-11-21T00:44:24.728Z,664.2
2022-11-21T00:45:27.076Z,664.3
2022-11-21T00:46:29.295Z,664.9
2022-11-21T00:47:31.491Z,664.9
2022-11-21T00:48:34.026Z,665
2022-11-21T00:49:36.493Z,664.9
2022-11-21T00:50:39.044Z,665.4
2022-11-21T00:51:41.518Z,665.1
2022-11-21T00:52:43.994Z,665.1
2022-11-21T00:53:46.170Z,664.8
2022-11-21T00:54:48.675Z,665.4
2022-11-21T00:55:51.153Z,664.6
2022-11-21T00:56:53.350Z,665
2022-11-21T00:57:55.852Z,665.2
2022-11-21T00:58:58.331Z,665.1
2022-11-21T00:59:59.964Z,665.1
2022-11-21T01:01:02.895Z,665
2022-11-21T01:02:04.827Z,665
2022-11-21T01:03:07.022Z,665.1
2022-11-21T01:04:09.219Z,665.1
2022-11-21T01:05:11.693Z,665
2022-11-21T01:06:13.887Z,664.6
2022-11-21T01:07:16.924Z,664.7
2022-11-21T01:08:19.466Z,665.2
2022-11-21T01:09:21.957Z,664.7
2022-11-21T01:10:24.436Z,665.1
2022-11-21T01:11:26.925Z,665.2
2022-11-21T01:12:29.507Z,664.9
2022-11-21T01:13:31.699Z,665.2
2022-11-21T01:14:34.172Z,664.6
2022-11-21T01:15:36.695Z,665
2022-11-21T01:16:39.187Z,664.5
2022-11-21T01:17:41.090Z,664.7
2022-11-21T01:18:43.286Z,664.6
2022-11-21T01:19:45.482Z,665.4
2022-11-21T01:20:47.391Z,665.1
2022-11-21T01:21:49.593Z,665.1
2022-11-21T01:22:52.088Z,664.8
2022-11-21T01:23:54.325Z,664.6
2022-11-21T01:24:56.809Z,664.2
2022-11-21T01:25:59.286Z,664.5
2022-11-21T01:27:01.486Z,664.6
2022-11-21T01:28:04.110Z,664.6
2022-11-21T01:29:06.308Z,665
2022-11-21T01:30:07.950Z,665.4
2022-11-21T01:31:10.434Z,665.3
2022-11-21T01:32:12.917Z,665.2
2022-11-21T01:33:15.382Z,665.3
2022-11-21T01:34:17.859Z,665.5
2022-11-21T01:35:20.338Z,665.9
2022-11-21T01:36:22.539Z,665.7
2022-11-21T01:37:25.036Z,665.8
2022-11-21T01:38:26.967Z,665.3
2022-11-21T01:39:29.174Z,665.3
2022-11-21T01:40:31.648Z,665.6
2022-11-21T01:41:33.934Z,665.3
2022-11-21T01:42:36.427Z,665.4
2022-11-21T01:43:39.042Z,665.2
2022-11-21T01:44:41.260Z,664.7
2022-11-21T01:45:43.732Z,665.2
2022-11-21T01:46:46.199Z,665.1
2022-11-21T01:47:48.713Z,665.8
2022-11-21T01:48:50.639Z,665.5
2022-11-21T01:49:53.123Z,666
2022-11-21T01:50:55.596Z,666.2
2022-11-21T01:51:58.078Z,666.1
2022-11-21T01:53:00.282Z,666.5
2022-11-21T01:54:02.485Z,666.8
2022-11-21T01:55:04.683Z,666.6
2022-11-21T01:56:06.612Z,666.9
2022-11-21T01:57:09.088Z,666.6
2022-11-21T01:58:11.585Z,667.1
2022-11-21T01:59:14.151Z,667.1
2022-11-21T02:00:16.627Z,667.4
2022-11-21T02:01:19.232Z,667.8
2022-11-21T02:02:21.710Z,667.6
2022-11-21T02:03:24.181Z,667.6
2022-11-21T02:04:27.759Z,667.8
2022-11-21T02:05:29.489Z,668.1
2022-11-21T02:06:31.685Z,668.5
2022-11-21T02:07:34.247Z,668.9
2022-11-21T02:08:36.194Z,668.5
2022-11-21T02:09:38.657Z,669
2022-11-21T02:10:41.143Z,669.4
2022-11-21T02:11:43.614Z,668.5
2022-11-21T02:12:45.569Z,669.2
2022-11-21T02:13:48.037Z,669.3
2022-11-21T02:14:50.629Z,669
2022-11-21T02:15:53.100Z,669.1
2022-11-21T02:16:55.301Z,669.5
2022-11-21T02:17:57.502Z,669.1
2022-11-21T02:18:59.433Z,669.9
2022-11-21T02:20:01.632Z,669.5
2022-11-21T02:21:03.833Z,669.2
2022-11-21T02:22:06.019Z,669.6
2022-11-21T02:23:07.941Z,669.7
2022-11-21T02:24:10.418Z,669.7
2022-11-21T02:25:12.912Z,670.5
2022-11-21T02:26:15.124Z,670
2022-11-21T02:27:17.320Z,670.2
2022-11-21T02:28:19.873Z,670.4
2022-11-21T02:29:22.372Z,670.8
2022-11-21T02:30:24.959Z,670.4
2022-11-21T02:31:27.428Z,671
2022-11-21T02:32:29.917Z,670.8
2022-11-21T02:33:32.415Z,670.7
2022-11-21T02:34:34.920Z,670.7
2022-11-21T02:35:37.392Z,671.2
2022-11-21T02:36:39.872Z,671.2
2022-11-21T02:37:41.786Z,671.5
2022-11-21T02:38:44.280Z,671.6
2022-11-21T02:39:46.754Z,672
2022-11-21T02:40:49.233Z,672.1
2022-11-21T02:41:51.709Z,671.9
2022-11-21T02:42:54.955Z,671.6
2022-11-21T02:43:57.440Z,672.2
2022-11-21T02:44:59.940Z,671.7
2022-11-21T02:46:02.545Z,672.4
2022-11-21T02:47:05.028Z,672.4
2022-11-21T02:48:07.290Z,672.4
2022-11-21T02:49:09.225Z,672.2
2022-11-21T02:50:11.707Z,672.4
2022-11-21T02:51:13.910Z,672.5
2022-11-21T02:52:16.384Z,672.4
2022-11-21T02:53:18.585Z,672.2
2022-11-21T02:54:20.570Z,672.5
2022-11-21T02:55:22.793Z,672.2
2022-11-21T02:56:25.996Z,672.5
2022-11-21T02:57:28.533Z,672.2
2022-11-21T02:58:31.000Z,672
2022-11-21T02:59:33.566Z,672
2022-11-21T03:00:36.216Z,672.8
2022-11-21T03:01:38.869Z,672.9
2022-11-21T03:02:41.359Z,673.1
2022-11-21T03:03:43.847Z,673.7
2022-11-21T03:04:46.046Z,673.1
2022-11-21T03:05:48.253Z,673.4
2022-11-21T03:06:50.444Z,673.3
2022-11-21T03:07:52.373Z,672.5
2022-11-21T03:08:53.746Z,673.1
2022-11-21T03:09:56.228Z,673.1
2022-11-21T03:10:58.720Z,673
2022-11-21T03:12:00.942Z,673.2
2022-11-21T03:13:03.477Z,673.1
2022-11-21T03:14:05.684Z,673.7
2022-11-21T03:15:08.156Z,673.9
2022-11-21T03:16:10.633Z,674.8
2022-11-21T03:17:13.240Z,675.1
2022-11-21T03:18:15.709Z,674.5
2022-11-21T03:19:17.908Z,674.1
2022-11-21T03:20:20.104Z,674.3
2022-11-21T03:21:22.579Z,674.7
2022-11-21T03:22:25.046Z,674.2
2022-11-21T03:23:27.523Z,674.4
2022-11-21T03:24:31.238Z,674
2022-11-21T03:25:33.175Z,674.3
2022-11-21T03:26:35.655Z,674.4
2022-11-21T03:27:38.134Z,675.2
2022-11-21T03:28:40.604Z,675.6
2022-11-21T03:29:43.080Z,675.4
2022-11-21T03:30:45.259Z,676.1
2022-11-21T03:31:47.538Z,675.5
2022-11-21T03:32:50.254Z,676.1
2022-11-21T03:33:52.446Z,676.3
2022-11-21T03:34:54.668Z,676
2022-11-21T03:35:56.883Z,675.7
2022-11-21T03:36:59.362Z,676.3
2022-11-21T03:38:01.555Z,676.5
2022-11-21T03:39:03.763Z,676.6
2022-11-21T03:40:06.306Z,676.6
2022-11-21T03:41:08.615Z,676.6
2022-11-21T03:42:10.818Z,676.6
2022-11-21T03:43:13.291Z,676.6
2022-11-21T03:44:15.768Z,677
2022-11-21T03:45:18.247Z,677.3
2022-11-21T03:46:20.633Z,677.5
2022-11-21T03:47:22.888Z,677.2
2022-11-21T03:48:25.502Z,677.4
2022-11-21T03:49:27.978Z,677.3
2022-11-21T03:50:30.454Z,677.6
2022-11-21T03:51:32.934Z,677.5
2022-11-21T03:52:34.874Z,677.4
2022-11-21T03:53:37.058Z,677.4
2022-11-21T03:54:39.546Z,677.3
2022-11-21T03:55:41.735Z,677.9
2022-11-21T03:56:43.945Z,677.3
2022-11-21T03:57:46.144Z,677.5
2022-11-21T03:58:48.068Z,677.4
2022-11-21T03:59:49.972Z,677.2
2022-11-21T04:00:52.172Z,676.9
2022-11-21T04:01:54.322Z,677
2022-11-21T04:02:56.811Z,676.8
2022-11-21T04:03:59.179Z,676.9
2022-11-21T04:05:01.646Z,677.1
2022-11-21T04:06:04.128Z,676.8
2022-11-21T04:07:06.683Z,677.1
2022-11-21T04:08:09.170Z,676.7
2022-11-21T04:09:11.391Z,676.8
2022-11-21T04:10:13.864Z,677
2022-11-21T04:11:16.113Z,677
2022-11-21T04:12:18.297Z,677.4
2022-11-21T04:13:20.508Z,678.2
2022-11-21T04:14:22.722Z,678.1
2022-11-21T04:15:25.190Z,677.3
2022-11-21T04:16:27.670Z,678.1
2022-11-21T04:17:30.152Z,678
2022-11-21T04:18:32.632Z,678.1
2022-11-21T04:19:34.924Z,678
2022-11-21T04:20:36.848Z,677.7
2022-11-21T04:21:39.041Z,677.6
2022-11-21T04:22:41.515Z,677.9
2022-11-21T04:23:43.418Z,677.4
2022-11-21T04:24:45.897Z,678
2022-11-21T04:25:48.364Z,677.9
2022-11-21T04:26:50.843Z,677.9
2022-11-21T04:27:53.047Z,677.8
2022-11-21T04:28:55.245Z,678
2022-11-21T04:29:57.431Z,677.5
2022-11-21T04:32:04.892Z,678.1
2022-11-21T04:33:07.073Z,677.9
2022-11-21T04:34:09.305Z,677.4
2022-11-21T04:35:11.895Z,678.3
2022-11-21T04:36:14.423Z,677.1
2022-11-21T04:37:17.259Z,678.1
2022-11-21T04:38:19.751Z,677.9
2022-11-21T04:39:21.958Z,677.7
2022-11-21T04:40:24.436Z,677.3
2022-11-21T04:41:26.635Z,678
2022-11-21T04:42:28.833Z,678.6
2022-11-21T04:43:31.469Z,678.9
2022-11-21T04:44:33.753Z,678.8
2022-11-21T04:45:35.988Z,679.6
2022-11-21T04:46:38.491Z,679.8
2022-11-21T04:47:40.678Z,679.1
2022-11-21T04:48:43.174Z,679.3
2022-11-21T04:49:45.387Z,679.9
2022-11-21T04:50:48.457Z,679.6
2022-11-21T04:51:51.029Z,679.6
2022-11-21T04:52:53.256Z,680.2
2022-11-21T04:53:55.747Z,680.4
2022-11-21T04:54:57.957Z,680
2022-11-21T04:56:00.435Z,680.7
2022-11-21T04:57:02.916Z,680.8
2022-11-21T04:58:04.842Z,681.9
2022-11-21T04:59:07.324Z,682.3
2022-11-21T05:00:09.821Z,681.8
2022-11-21T05:01:12.866Z,682.2
2022-11-21T05:02:15.094Z,682.2
2022-11-21T05:03:17.577Z,682.6
2022-11-21T05:04:19.254Z,683
2022-11-21T05:05:21.648Z,682.7
2022-11-21T05:06:24.278Z,683
2022-11-21T05:07:26.728Z,682.9
2022-11-21T05:08:29.219Z,683.1
2022-11-21T05:09:31.141Z,682.7
2022-11-21T05:10:33.615Z,683
2022-11-21T05:11:36.092Z,682.9
2022-11-21T05:12:38.563Z,683.4
2022-11-21T05:13:41.054Z,683
2022-11-21T05:14:43.531Z,683.5
2022-11-21T05:15:46.031Z,683.7
2022-11-21T05:16:48.232Z,683
2022-11-21T05:17:50.723Z,683.7
2022-11-21T05:18:52.924Z,683
2022-11-21T05:19:55.145Z,683.3
2022-11-21T05:20:57.346Z,682.8
2022-11-21T05:21:59.934Z,683.5
2022-11-21T05:23:02.505Z,683.1
2022-11-21T05:24:04.989Z,683
2022-11-21T05:25:07.476Z,683.3
2022-11-21T05:26:09.955Z,683.1
2022-11-21T05:27:12.462Z,683
2022-11-21T05:28:14.934Z,683.6
2022-11-21T05:29:17.431Z,682.8
2022-11-21T05:30:19.681Z,683.4
2022-11-21T05:31:22.183Z,683.3
2022-11-21T05:32:24.668Z,682.9
2022-11-21T05:33:26.859Z,683.2
2022-11-21T05:34:31.210Z,683.1
2022-11-21T05:35:33.467Z,683.7
2022-11-21T05:36:35.663Z,683.2
2022-11-21T05:37:38.309Z,683.3
2022-11-21T05:38:40.508Z,683.3
2022-11-21T05:39:42.719Z,683.2
2022-11-21T05:40:44.935Z,683.1
2022-11-21T05:41:47.424Z,683.7
2022-11-21T05:42:49.633Z,683
2022-11-21T05:43:52.110Z,683
2022-11-21T05:44:54.598Z,682.8
2022-11-21T05:45:57.070Z,683.6
2022-11-21T05:46:59.024Z,683.5
2022-11-21T05:48:01.204Z,683.3
2022-11-21T05:49:03.406Z,683.1
2022-11-21T05:50:05.888Z,683.3
2022-11-21T05:51:08.372Z,683
2022-11-21T05:52:10.323Z,682.6
2022-11-21T05:53:12.642Z,682.8
2022-11-21T05:54:15.135Z,682.5
2022-11-21T05:55:17.814Z,682.8
2022-11-21T05:56:20.102Z,682.7
2022-11-21T05:57:22.031Z,682.9
2022-11-21T05:58:24.513Z,682.7
2022-11-21T05:59:26.723Z,682.9
2022-11-21T06:00:29.208Z,682
2022-11-21T06:01:31.706Z,682.7
2022-11-21T06:02:34.387Z,682.3
2022-11-21T06:03:36.604Z,682.1
2022-11-21T06:04:38.537Z,682.1
2022-11-21T06:05:40.741Z,682.1
2022-11-21T06:06:42.925Z,681.7
2022-11-21T06:07:45.912Z,681.8
2022-11-21T06:08:48.547Z,681.5
2022-11-21T06:09:50.753Z,681.5
2022-11-21T06:10:53.259Z,681.5
2022-11-21T06:11:55.588Z,681.4
2022-11-21T06:12:57.493Z,681.1
2022-11-21T06:13:59.406Z,681.4
2022-11-21T06:15:01.628Z,681.3
2022-11-21T06:16:04.142Z,681.2
2022-11-21T06:17:06.620Z,681.7
2022-11-21T06:18:09.097Z,681.1
2022-11-21T06:19:11.586Z,681.1
2022-11-21T06:20:14.081Z,680.9
2022-11-21T06:21:16.013Z,680.9
2022-11-21T06:22:18.513Z,681
2022-11-21T06:23:21.018Z,680.3
2022-11-21T06:24:24.590Z,680.3
2022-11-21T06:25:27.064Z,680.4
2022-11-21T06:26:29.544Z,680.8
2022-11-21T06:27:32.021Z,680
2022-11-21T06:28:34.260Z,680.4
2022-11-21T06:29:36.729Z,680.6
2022-11-21T06:30:38.937Z,680.5
2022-11-21T06:31:41.422Z,681.2
2022-11-21T06:32:43.931Z,680.4
2022-11-21T06:33:46.409Z,681
2022-11-21T06:34:48.622Z,680
2022-11-21T06:35:50.548Z,680.1
2022-11-21T06:36:52.744Z,679.7
2022-11-21T06:37:55.274Z,680.8
2022-11-21T06:38:57.492Z,680.2
2022-11-21T06:40:00.194Z,680.9
2022-11-21T06:41:02.798Z,680.2
2022-11-21T06:42:05.364Z,680.1
2022-11-21T06:43:07.572Z,679.1
2022-11-21T06:44:09.773Z,679.4
2022-11-21T06:45:11.980Z,679.3
2022-11-21T06:46:13.887Z,679.6
2022-11-21T06:47:16.119Z,678.5
2022-11-21T06:48:18.596Z,678.6
2022-11-21T06:49:20.832Z,678.6
2022-11-21T06:50:23.030Z,678
2022-11-21T06:51:25.559Z,678
2022-11-21T06:52:28.060Z,677.5
2022-11-21T06:53:30.280Z,677.9
2022-11-21T06:54:34.573Z,677.8
2022-11-21T06:55:37.330Z,677.8
2022-11-21T06:56:39.521Z,677.8
2022-11-21T06:57:41.439Z,677.4
2022-11-21T06:58:43.623Z,677.4
2022-11-21T06:59:45.836Z,677.7
2022-11-21T07:00:48.048Z,677.6
2022-11-21T07:01:50.140Z,677.7
2022-11-21T07:02:52.149Z,677.7
2022-11-21T07:03:54.655Z,677.4
2022-11-21T07:04:57.140Z,677.6
2022-11-21T07:05:59.112Z,677.4
2022-11-21T07:07:01.924Z,677.3
2022-11-21T07:08:05.988Z,677.1
2022-11-21T07:10:15.531Z,677.1
2022-11-21T07:12:23.086Z,676.9
2022-11-21T07:13:25.579Z,676.9
2022-11-21T07:14:27.535Z,676.1
2022-11-21T07:15:29.454Z,676.1
2022-11-21T07:16:31.383Z,675.7
2022-11-21T07:17:33.856Z,675.6
2022-11-21T07:18:35.898Z,675.4
2022-11-21T07:20:42.913Z,675.7
2022-11-21T07:21:45.156Z,675.3
2022-11-21T07:22:47.134Z,675.8
2022-11-21T07:23:49.637Z,675.5
2022-11-21T07:24:52.131Z,675.3
2022-11-21T07:25:54.348Z,675
2022-11-21T07:26:56.879Z,675
2022-11-21T07:27:59.460Z,674.9
2022-11-21T07:29:01.974Z,674.8
2022-11-21T07:30:04.220Z,674.9
2022-11-21T07:32:11.682Z,674.7
2022-11-21T07:33:13.600Z,674.6
2022-11-21T07:34:15.262Z,674.7
2022-11-21T07:35:17.748Z,674.6
2022-11-21T07:36:19.962Z,674.5
2022-11-21T07:37:22.182Z,674.3
2022-11-21T07:38:24.392Z,674.3
2022-11-21T07:39:28.008Z,674.2
2022-11-21T07:40:30.547Z,673.6
2022-11-21T07:41:32.196Z,673.7
2022-11-21T07:42:34.453Z,673.9
2022-11-21T07:43:37.124Z,673.7
2022-11-21T07:44:39.341Z,673.9
2022-11-21T07:45:41.570Z,674
2022-11-21T07:46:43.778Z,673.4
2022-11-21T07:47:46.267Z,673.9
2022-11-21T07:48:48.463Z,673.8
2022-11-21T07:49:50.687Z,674.3
2022-11-21T07:50:53.234Z,673.7
2022-11-21T07:51:55.436Z,673.6
2022-11-21T07:52:57.662Z,673.5
2022-11-21T07:53:59.583Z,673.7
2022-11-21T07:55:02.080Z,674.1
2022-11-21T07:56:04.276Z,673.9
2022-11-21T07:57:06.216Z,674
2022-11-21T07:58:08.710Z,674.1
2022-11-21T07:59:11.293Z,674.2
2022-11-21T08:00:13.498Z,674.1
2022-11-21T08:01:16.072Z,673.9
2022-11-21T08:02:18.453Z,674.2
2022-11-21T08:03:20.384Z,674.1
2022-11-21T08:04:22.320Z,673.5
2022-11-21T08:05:24.250Z,673.3
2022-11-21T08:06:26.483Z,674
2022-11-21T08:07:29.280Z,673.4
2022-11-21T08:08:31.261Z,673.5
2022-11-21T08:10:38.221Z,673.6
2022-11-21T08:11:40.465Z,672.8
2022-11-21T08:12:42.960Z,673.2
2022-11-21T08:13:45.511Z,673.1
2022-11-21T08:14:48.085Z,672.9
2022-11-21T08:15:50.568Z,672.8
2022-11-21T08:16:53.071Z,673.1
2022-11-21T08:17:55.015Z,672.6
2022-11-21T08:18:57.507Z,673.2
2022-11-21T08:19:59.714Z,672.3
2022-11-21T08:21:02.198Z,673
2022-11-21T08:22:04.405Z,672.7
2022-11-21T08:23:06.660Z,672.6
2022-11-21T08:24:08.873Z,672.6
2022-11-21T08:25:10.797Z,672.8
2022-11-21T08:26:12.736Z,672.8
2022-11-21T08:27:14.978Z,672.3
2022-11-21T08:28:17.183Z,672.4
2022-11-21T08:29:19.406Z,671.6
2022-11-21T08:30:22.037Z,672
2022-11-21T08:31:24.527Z,672.2
2022-11-21T08:32:26.449Z,672.4
2022-11-21T08:33:28.676Z,672.3
2022-11-21T08:34:30.914Z,672.5
2022-11-21T08:35:33.436Z,672.3
2022-11-21T08:36:35.908Z,672.3
2022-11-21T08:37:38.131Z,672.6
2022-11-21T08:38:40.062Z,672.8
2022-11-21T08:39:41.995Z,673.6
2022-11-21T08:40:43.934Z,673.1
2022-11-21T08:41:45.862Z,673.2
2022-11-21T08:42:48.366Z,672.8
2022-11-21T08:43:50.868Z,673.3
2022-11-21T08:44:52.800Z,673.4
2022-11-21T08:45:55.378Z,673.3
2022-11-21T08:46:57.580Z,673.4
2022-11-21T08:48:00.103Z,673.2
2022-11-21T08:49:02.594Z,673
2022-11-21T08:51:09.799Z,673.1
2022-11-21T08:52:12.277Z,673.1
2022-11-21T08:53:14.779Z,673.2
2022-11-21T08:54:16.997Z,673.2
2022-11-21T08:55:19.508Z,673.6
2022-11-21T08:56:21.990Z,673.2
2022-11-21T08:57:24.473Z,673.6
2022-11-21T08:58:26.952Z,673.3
2022-11-21T08:59:29.158Z,673.8
2022-11-21T09:00:30.831Z,673.3
2022-11-21T09:01:33.758Z,673.3
2022-11-21T09:02:36.312Z,673.5
2022-11-21T09:03:38.514Z,673.6
2022-11-21T09:04:40.737Z,673.2
2022-11-21T09:05:42.962Z,673.7
2022-11-21T09:06:45.453Z,673.8
2022-11-21T09:07:49.969Z,674.1
2022-11-21T09:08:52.210Z,674.1
2022-11-21T09:09:54.428Z,673.8
2022-11-21T09:10:56.645Z,673.7
2022-11-21T09:11:58.857Z,673.7
2022-11-21T09:13:01.106Z,673.5
2022-11-21T09:14:03.604Z,673.8
2022-11-21T09:15:06.105Z,673.8
2022-11-21T09:16:08.066Z,674.2
2022-11-21T09:17:10.685Z,674.3
2022-11-21T09:18:13.166Z,673.7
2022-11-21T09:19:15.648Z,673.2
2022-11-21T09:20:18.389Z,673.8
2022-11-21T09:21:20.602Z,673.2
2022-11-21T09:22:22.799Z,673.4
2022-11-21T09:23:25.002Z,673.3
2022-11-21T09:24:27.495Z,673.5
2022-11-21T09:25:29.412Z,673.9
2022-11-21T09:26:31.618Z,673.6
2022-11-21T09:27:34.113Z,673.4
2022-11-21T09:28:36.336Z,673.4
2022-11-21T09:29:38.820Z,673.5
2022-11-21T09:30:40.771Z,674.1
2022-11-21T09:31:43.008Z,673.4
2022-11-21T09:32:45.622Z,673.9
2022-11-21T09:34:53.093Z,674.4
2022-11-21T09:35:55.349Z,674.7
2022-11-21T09:36:57.845Z,674.7
2022-11-21T09:38:00.054Z,674.9
2022-11-21T09:39:01.983Z,674.7
2022-11-21T09:40:05.394Z,674.6
2022-11-21T09:41:07.351Z,674.6
2022-11-21T09:42:09.554Z,674.5
2022-11-21T09:43:11.756Z,674.1
2022-11-21T09:44:13.967Z,674.4
2022-11-21T09:45:16.246Z,674.3
2022-11-21T09:46:17.903Z,674.8
2022-11-21T09:47:20.165Z,675.3
2022-11-21T09:48:22.850Z,675.3
2022-11-21T09:49:25.791Z,674.8
2022-11-21T09:50:28.536Z,675
2022-11-21T09:51:30.737Z,675.3
2022-11-21T09:52:33.233Z,674.6
2022-11-21T09:53:35.163Z,674.5
2022-11-21T09:54:37.637Z,674.5
2022-11-21T09:55:39.849Z,674.9
2022-11-21T09:56:42.328Z,675
2022-11-21T09:57:43.977Z,675
2022-11-21T09:58:47.621Z,674.8
2022-11-21T09:59:49.843Z,674.9
2022-11-21T10:00:52.469Z,675.1
2022-11-21T10:01:54.435Z,675.4
2022-11-21T10:02:56.946Z,675.4
2022-11-21T10:03:59.529Z,675.8
2022-11-21T10:05:01.476Z,676
2022-11-21T10:06:04.061Z,675.5
2022-11-21T10:07:06.446Z,675.5
2022-11-21T10:08:08.425Z,675.4
2022-11-21T10:09:10.916Z,675.8
2022-11-21T10:10:13.113Z,676.2
2022-11-21T10:12:20.302Z,675.8
2022-11-21T10:13:22.506Z,676
2022-11-21T10:14:24.743Z,676.6
2022-11-21T10:15:26.966Z,676.7
2022-11-21T10:16:29.196Z,676.4
2022-11-21T10:17:31.710Z,676.5
2022-11-21T10:18:33.944Z,676.2
2022-11-21T10:19:36.508Z,677
2022-11-21T10:20:38.990Z,677.1
2022-11-21T10:21:41.203Z,676.8
2022-11-21T10:22:43.402Z,677
2022-11-21T10:23:45.622Z,677.3
2022-11-21T10:24:47.843Z,678
2022-11-21T10:25:49.751Z,677.9
2022-11-21T10:26:52.259Z,678.4
2022-11-21T10:27:54.748Z,679
2022-11-21T10:28:57.253Z,679.4
2022-11-21T10:29:59.750Z,679.9
2022-11-21T10:31:02.243Z,679.8
2022-11-21T10:32:04.183Z,679.8
2022-11-21T10:33:06.401Z,679.6
2022-11-21T10:34:08.671Z,679.6
2022-11-21T10:35:11.248Z,680.4
2022-11-21T10:36:13.737Z,680.1
2022-11-21T10:37:15.971Z,680.3
2022-11-21T10:38:18.470Z,680.3
2022-11-21T10:39:20.399Z,680.6
2022-11-21T10:40:22.329Z,680.2
2022-11-21T10:41:24.844Z,680.3
2022-11-21T10:42:27.360Z,680.4
2022-11-21T10:43:29.861Z,680.6
2022-11-21T10:44:31.988Z,680.1
2022-11-21T10:45:34.215Z,680.2
2022-11-21T10:46:36.709Z,681
2022-11-21T10:47:38.950Z,681.2
2022-11-21T10:48:41.143Z,681.1
2022-11-21T10:49:43.359Z,681.1
2022-11-21T10:50:45.965Z,680.9
2022-11-21T10:51:48.946Z,680.9
2022-11-21T10:52:51.156Z,680.8
2022-11-21T10:53:53.374Z,680.6
2022-11-21T10:54:55.880Z,680.5
2022-11-21T10:55:57.559Z,680.6
2022-11-21T10:56:59.481Z,680.7
2022-11-21T10:58:01.202Z,681.3
2022-11-21T10:59:03.124Z,680.8
2022-11-21T11:00:05.625Z,681.2
2022-11-21T11:01:08.261Z,681.1
2022-11-21T11:02:10.244Z,681.4
2022-11-21T11:03:12.743Z,681.3
2022-11-21T11:05:20.276Z,682
2022-11-21T11:06:22.585Z,682.1
2022-11-21T11:07:25.411Z,682.4
2022-11-21T11:08:27.952Z,682.3
2022-11-21T11:09:29.919Z,682.4
2022-11-21T11:10:32.402Z,682.2
2022-11-21T11:11:34.895Z,682.4
2022-11-21T11:12:37.400Z,682.5
2022-11-21T11:14:44.654Z,683.7
2022-11-21T11:15:47.169Z,684.5
2022-11-21T11:16:49.414Z,684.2
2022-11-21T11:17:51.895Z,684.5
2022-11-21T11:18:54.406Z,684.2
2022-11-21T11:19:56.607Z,684.8
2022-11-21T11:21:00.129Z,684.7
2022-11-21T11:22:02.726Z,684.9
2022-11-21T11:23:04.976Z,685.1
2022-11-21T11:24:07.454Z,685
2022-11-21T11:25:09.123Z,684.9
2022-11-21T11:26:11.588Z,685.9
2022-11-21T11:27:13.520Z,685.6
2022-11-21T11:28:15.493Z,685.7
2022-11-21T11:29:17.971Z,685.9
2022-11-21T11:30:20.203Z,685.6
2022-11-21T11:31:22.732Z,685.8
2022-11-21T11:32:25.245Z,686.4
2022-11-21T11:33:27.462Z,686.2
2022-11-21T11:34:29.680Z,686.8
2022-11-21T11:35:31.918Z,687
2022-11-21T11:36:33.881Z,687
2022-11-21T11:38:41.230Z,687.7
2022-11-21T11:39:43.476Z,687.1
2022-11-21T11:40:45.138Z,687.5
2022-11-21T11:41:49.138Z,687.1
2022-11-21T11:42:51.342Z,687.3
2022-11-21T11:43:53.309Z,687.8
2022-11-21T11:44:55.500Z,687.9
2022-11-21T11:45:57.973Z,687.7
2022-11-21T11:47:00.454Z,687.6
2022-11-21T11:48:02.955Z,687.7
2022-11-21T11:50:10.465Z,687.6
2022-11-21T11:51:12.399Z,687.8
2022-11-21T11:52:14.644Z,688
2022-11-21T11:53:17.159Z,687.8
2022-11-21T11:54:19.775Z,688.3
2022-11-21T11:55:21.978Z,688.1
2022-11-21T11:56:24.468Z,688.2
2022-11-21T11:57:26.395Z,688.3
2022-11-21T11:58:28.605Z,688.3
2022-11-21T11:59:32.492Z,688.3
2022-11-21T12:00:34.438Z,688.5
2022-11-21T12:01:36.684Z,688.5
2022-11-21T12:02:39.214Z,688.8
2022-11-21T12:03:41.212Z,688.6
2022-11-21T12:04:43.694Z,688.7
2022-11-21T12:05:46.934Z,689
2022-11-21T12:08:59.832Z,689.4
2022-11-21T12:10:02.490Z,689.5
2022-11-21T12:11:04.434Z,689.1
2022-11-21T12:12:06.640Z,689.8
2022-11-21T12:13:08.863Z,689.9
2022-11-21T12:14:10.802Z,690.1
2022-11-21T12:15:13.298Z,690.8
2022-11-21T12:16:16.304Z,691.3
2022-11-21T12:17:18.786Z,691.5
2022-11-21T12:18:21.116Z,691.8
2022-11-21T12:19:23.358Z,692.4
2022-11-21T12:20:25.886Z,692.4
2022-11-21T12:21:28.362Z,692.5
2022-11-21T12:22:30.576Z,692.6
2022-11-21T12:23:33.084Z,693.1
2022-11-21T12:25:40.374Z,692.5
2022-11-21T12:26:42.859Z,693.3
2022-11-21T12:27:45.086Z,694
2022-11-21T12:28:48.665Z,694.1
2022-11-21T12:29:50.887Z,694.6
2022-11-21T12:30:53.086Z,694.9
2022-11-21T12:31:55.619Z,695.4
2022-11-21T12:32:58.780Z,695
2022-11-21T12:34:04.530Z,695.5
2022-11-21T12:35:06.720Z,695.5
2022-11-21T12:37:13.910Z,695.9
2022-11-21T12:38:16.400Z,695.7
2022-11-21T12:39:18.358Z,696.5
2022-11-21T12:40:20.843Z,696
2022-11-21T12:41:23.541Z,695.8
2022-11-21T12:42:26.035Z,695.5
2022-11-21T12:43:27.674Z,696.5
2022-11-21T12:44:30.158Z,696.5
2022-11-21T12:45:31.828Z,696.1
2022-11-21T12:46:34.306Z,696.3
2022-11-21T12:47:36.497Z,696.7
2022-11-21T12:48:38.522Z,696.6
2022-11-21T12:49:40.743Z,696.7
2022-11-21T12:50:43.232Z,697.1
2022-11-21T12:51:46.746Z,697.3
2022-11-21T12:52:48.685Z,697.5
2022-11-21T12:53:50.900Z,697
2022-11-21T12:54:53.122Z,697.5
2022-11-21T12:55:55.054Z,697.2
2022-11-21T12:56:57.482Z,697.7
2022-11-21T12:57:59.696Z,697.1
2022-11-21T12:59:02.187Z,697.4
2022-11-21T13:00:04.395Z,697.8
2022-11-21T13:01:06.968Z,697.7
2022-11-21T13:02:08.953Z,697.8
2022-11-21T13:03:11.429Z,698
2022-11-21T13:04:13.363Z,698.2
2022-11-21T13:05:15.575Z,698.8
2022-11-21T13:06:18.060Z,699
2022-11-21T13:07:20.755Z,698.6
2022-11-21T13:09:30.195Z,699
2022-11-21T13:10:32.864Z,699.1
2022-11-21T13:11:35.365Z,699.4
2022-11-21T13:12:38.009Z,699.5
2022-11-21T13:13:40.240Z,699.7
2022-11-21T13:14:42.483Z,699.8
2022-11-21T13:15:44.693Z,700
2022-11-21T13:16:46.680Z,700.2
2022-11-21T13:17:50.613Z,700.7
2022-11-21T13:18:52.909Z,700.2
2022-11-21T13:19:55.119Z,700.4
2022-11-21T13:20:57.342Z,700.5
2022-11-21T13:21:59.813Z,700.6
2022-11-21T13:23:02.306Z,700.5
2022-11-21T13:24:04.917Z,700.2
2022-11-21T13:25:06.910Z,700.3
2022-11-21T13:26:09.452Z,700.2
2022-11-21T13:27:11.383Z,700.3
2022-11-21T13:28:14.145Z,700.3
2022-11-21T13:29:16.648Z,700
2022-11-21T13:30:19.170Z,700.6
2022-11-21T13:31:21.383Z,700.6
2022-11-21T13:32:23.616Z,700.3
2022-11-21T13:33:25.841Z,700.5
2022-11-21T13:34:30.032Z,700.7
2022-11-21T13:35:32.324Z,700.9
2022-11-21T13:36:34.292Z,700.8
2022-11-21T13:37:36.233Z,701.2
2022-11-21T13:38:38.485Z,701.2
2022-11-21T13:39:40.978Z,701.3
2022-11-21T13:40:43.193Z,701.7
2022-11-21T13:41:45.741Z,701.9
2022-11-21T13:43:53.365Z,702.7
2022-11-21T13:44:55.885Z,702.9
2022-11-21T13:45:58.425Z,703
2022-11-21T13:47:00.656Z,703.2
2022-11-21T13:48:03.156Z,703.5
2022-11-21T13:49:05.121Z,703.1
2022-11-21T13:50:07.755Z,703